Joshua — FO4549 — position and weather

sailwx.info

Track history (hours):
 
Tides and Currents Weather Stations Pressure Air Temp Water Temp Dewpoint Dewpoint Depression Visibility Wind Speed Wind Dir Waves Ship Positions

Joshua

Last reported at 2017-Nov-23 08:28 UTC. Time now 2018-Jan-23 23:51 UTC.
Position N 46°09' W 001°09'.
Warning: this ship's position is months out of date.

Length 12 m.

Type: Sailing vessel. MMSI: 227524140.

Date/timePositionNaut miles runAvg speedWind from/ knotsBaromVisibWave heightAir tempDewpointWater temp
2017-Nov-23 08:28N 46°09' W 001°09'0 0.0
2017-Nov-23 07:59N 46°09' W 001°09'0 0.0
2017-Nov-23 07:29N 46°09' W 001°09'0 0.0
2017-Nov-23 06:59N 46°09' W 001°09'0 1.0
2017-Nov-23 06:30N 46°09' W 001°10'0 0.0
2017-Nov-22 19:22N 46°09' W 001°10'  
2017-Nov-19 17:09N 46°09' W 001°10'0 0.0
2017-Nov-19 17:00N 46°09' W 001°10'0 0.2
2017-Nov-19 16:30N 46°09' W 001°10'1 1.6
2017-Nov-19 16:00N 46°09' W 001°09'0 0.0
2017-Nov-17 15:07N 46°09' W 001°09'0 0.0
2017-Nov-17 14:58N 46°09' W 001°09'0 0.4
2017-Nov-17 14:29N 46°09' W 001°09'1 1.8
2017-Nov-17 14:00N 46°09' W 001°10'1 2.3
2017-Nov-17 13:30N 46°08' W 001°12'2 3.7
2017-Nov-17 13:00N 46°06' W 001°11'1 1.5
2017-Nov-17 12:30N 46°07' W 001°11'1 2.4
2017-Nov-17 12:00N 46°08' W 001°12'1 1.0
2017-Nov-17 11:25N 46°08' W 001°12'1 2.8
2017-Nov-17 11:00N 46°09' W 001°14'1 2.3
2017-Nov-17 10:30N 46°09' W 001°16'1 2.7
2017-Nov-17 10:00N 46°08' W 001°14'2 4.0
2017-Nov-17 09:30N 46°09' W 001°11'1 1.2
2017-Nov-17 09:00N 46°09' W 001°10'0 0.1
2017-Nov-17 08:30N 46°09' W 001°10'0 0.0
2017-Nov-16 16:20N 46°09' W 001°10'1 2.0
2017-Nov-16 16:00N 46°09' W 001°11'2 3.7
2017-Nov-16 15:30N 46°08' W 001°13'2 3.2
2017-Nov-16 15:00N 46°07' W 001°15'1 1.1
2017-Nov-16 14:30N 46°06' W 001°16'1 2.0
2017-Nov-16 14:00N 46°06' W 001°15'1 2.0
2017-Nov-16 13:30N 46°05' W 001°13'1 1.2
2017-Nov-16 13:00N 46°06' W 001°12'0 0.4
2017-Nov-16 12:30N 46°06' W 001°12'1 1.4
2017-Nov-16 11:58N 46°06' W 001°12'1 1.7
2017-Nov-16 11:30N 46°07' W 001°11'0 0.9
2017-Nov-16 11:00N 46°07' W 001°11'0 0.7
2017-Nov-16 10:28N 46°07' W 001°11'0 0.4
2017-Nov-16 09:58N 46°07' W 001°11'1 1.4
2017-Nov-16 09:30N 46°08' W 001°11'1 1.2
2017-Nov-16 09:00N 46°09' W 001°11'1 1.1
2017-Nov-16 08:30N 46°09' W 001°10'0 0.0
2017-Nov-15 17:23N 46°09' W 001°10'1 1.5
2017-Nov-15 17:00N 46°09' W 001°10'0 0.5
2017-Nov-15 16:30N 46°09' W 001°10'1 2.8
2017-Nov-15 16:00N 46°08' W 001°12'1 1.2
2017-Nov-15 15:30N 46°08' W 001°12'1 3.0
2017-Nov-15 15:00N 46°07' W 001°12'1 1.5
2017-Nov-15 14:30N 46°07' W 001°13'1 2.2
2017-Nov-15 14:00N 46°08' W 001°14'2 3.4
2017-Nov-15 13:30N 46°09' W 001°16'0 0.0
2017-Nov-15 13:00N 46°09' W 001°16'1 2.3
2017-Nov-15 12:30N 46°08' W 001°14'1 1.6
2017-Nov-15 12:00N 46°08' W 001°13'1 2.8
2017-Nov-15 11:30N 46°09' W 001°11'1 1.6
2017-Nov-15 10:59N 46°09' W 001°10'0 0.0
2017-Nov-15 10:29N 46°09' W 001°10'0 0.0
2017-Nov-15 09:59N 46°09' W 001°10'0 0.0
2017-Nov-15 09:29N 46°09' W 001°10'0 0.0
2017-Nov-15 08:59N 46°09' W 001°10'0 0.1
2017-Nov-15 08:29N 46°09' W 001°10'0 0.0
2017-Nov-14 15:18N 46°09' W 001°10'0 0.0
2017-Nov-14 15:00N 46°09' W 001°10'1 1.8
2017-Nov-14 14:30N 46°09' W 001°09'1 1.6
2017-Nov-14 14:00N 46°09' W 001°10'0 0.1
2017-Nov-14 13:30N 46°09' W 001°10'1 1.5
2017-Nov-14 13:00N 46°09' W 001°11'1 2.2
2017-Nov-14 12:30N 46°08' W 001°13'0 0.9
2017-Nov-14 12:00N 46°08' W 001°13'0 0.6
2017-Nov-14 11:28N 46°08' W 001°12'0 0.8
2017-Nov-14 10:58N 46°08' W 001°12'0 1.0
2017-Nov-14 10:28N 46°08' W 001°11'0 1.1
2017-Nov-14 10:00N 46°09' W 001°11'1 2.2
2017-Nov-14 09:30N 46°09' W 001°09'1 1.7
2017-Nov-14 09:00N 46°09' W 001°10'0 0.1
2017-Nov-14 08:28N 46°09' W 001°10'  
Track history (hours):
 
Tides and Currents Weather Stations Pressure Air Temp Water Temp Dewpoint Dewpoint Depression Visibility Wind Speed Wind Dir Waves Ship Positions

Joshua

Last reported at 2017-Nov-23 08:28 UTC. Time now 2018-Jan-23 23:51 UTC.
Position N 46°09' W 001°09'.
Warning: this ship's position is months out of date.

Length 12 m.

Type: Sailing vessel. MMSI: 227524140.

Date/timePositionNaut miles runAvg speedWind from/ knotsBaromVisibWave heightAir tempDewpointWater temp
2017-Nov-23 08:28N 46°09' W 001°09'0 0.0
2017-Nov-23 07:59N 46°09' W 001°09'0 0.0
2017-Nov-23 07:29N 46°09' W 001°09'0 0.0
2017-Nov-23 06:59N 46°09' W 001°09'0 1.0
2017-Nov-23 06:30N 46°09' W 001°10'0 0.0
2017-Nov-22 19:22N 46°09' W 001°10'  
2017-Nov-19 17:09N 46°09' W 001°10'0 0.0
2017-Nov-19 17:00N 46°09' W 001°10'0 0.2
2017-Nov-19 16:30N 46°09' W 001°10'1 1.6
2017-Nov-19 16:00N 46°09' W 001°09'0 0.0
2017-Nov-17 15:07N 46°09' W 001°09'0 0.0
2017-Nov-17 14:58N 46°09' W 001°09'0 0.4
2017-Nov-17 14:29N 46°09' W 001°09'1 1.8
2017-Nov-17 14:00N 46°09' W 001°10'1 2.3
2017-Nov-17 13:30N 46°08' W 001°12'2 3.7
2017-Nov-17 13:00N 46°06' W 001°11'1 1.5
2017-Nov-17 12:30N 46°07' W 001°11'1 2.4
2017-Nov-17 12:00N 46°08' W 001°12'1 1.0
2017-Nov-17 11:25N 46°08' W 001°12'1 2.8
2017-Nov-17 11:00N 46°09' W 001°14'1 2.3
2017-Nov-17 10:30N 46°09' W 001°16'1 2.7
2017-Nov-17 10:00N 46°08' W 001°14'2 4.0
2017-Nov-17 09:30N 46°09' W 001°11'1 1.2
2017-Nov-17 09:00N 46°09' W 001°10'0 0.1
2017-Nov-17 08:30N 46°09' W 001°10'0 0.0
2017-Nov-16 16:20N 46°09' W 001°10'1 2.0
2017-Nov-16 16:00N 46°09' W 001°11'2 3.7
2017-Nov-16 15:30N 46°08' W 001°13'2 3.2
2017-Nov-16 15:00N 46°07' W 001°15'1 1.1
2017-Nov-16 14:30N 46°06' W 001°16'1 2.0
2017-Nov-16 14:00N 46°06' W 001°15'1 2.0
2017-Nov-16 13:30N 46°05' W 001°13'1 1.2
2017-Nov-16 13:00N 46°06' W 001°12'0 0.4
2017-Nov-16 12:30N 46°06' W 001°12'1 1.4
2017-Nov-16 11:58N 46°06' W 001°12'1 1.7
2017-Nov-16 11:30N 46°07' W 001°11'0 0.9
2017-Nov-16 11:00N 46°07' W 001°11'0 0.7
2017-Nov-16 10:28N 46°07' W 001°11'0 0.4
2017-Nov-16 09:58N 46°07' W 001°11'1 1.4
2017-Nov-16 09:30N 46°08' W 001°11'1 1.2
2017-Nov-16 09:00N 46°09' W 001°11'1 1.1
2017-Nov-16 08:30N 46°09' W 001°10'0 0.0
2017-Nov-15 17:23N 46°09' W 001°10'1 1.5
2017-Nov-15 17:00N 46°09' W 001°10'0 0.5
2017-Nov-15 16:30N 46°09' W 001°10'1 2.8
2017-Nov-15 16:00N 46°08' W 001°12'1 1.2
2017-Nov-15 15:30N 46°08' W 001°12'1 3.0
2017-Nov-15 15:00N 46°07' W 001°12'1 1.5
2017-Nov-15 14:30N 46°07' W 001°13'1 2.2
2017-Nov-15 14:00N 46°08' W 001°14'2 3.4
2017-Nov-15 13:30N 46°09' W 001°16'0 0.0
2017-Nov-15 13:00N 46°09' W 001°16'1 2.3
2017-Nov-15 12:30N 46°08' W 001°14'1 1.6
2017-Nov-15 12:00N 46°08' W 001°13'1 2.8
2017-Nov-15 11:30N 46°09' W 001°11'1 1.6
2017-Nov-15 10:59N 46°09' W 001°10'0 0.0
2017-Nov-15 10:29N 46°09' W 001°10'0 0.0
2017-Nov-15 09:59N 46°09' W 001°10'0 0.0
2017-Nov-15 09:29N 46°09' W 001°10'0 0.0
2017-Nov-15 08:59N 46°09' W 001°10'0 0.1
2017-Nov-15 08:29N 46°09' W 001°10'0 0.0
2017-Nov-14 15:18N 46°09' W 001°10'0 0.0
2017-Nov-14 15:00N 46°09' W 001°10'1 1.8
2017-Nov-14 14:30N 46°09' W 001°09'1 1.6
2017-Nov-14 14:00N 46°09' W 001°10'0 0.1
2017-Nov-14 13:30N 46°09' W 001°10'1 1.5
2017-Nov-14 13:00N 46°09' W 001°11'1 2.2
2017-Nov-14 12:30N 46°08' W 001°13'0 0.9
2017-Nov-14 12:00N 46°08' W 001°13'0 0.6
2017-Nov-14 11:28N 46°08' W 001°12'0 0.8
2017-Nov-14 10:58N 46°08' W 001°12'0 1.0
2017-Nov-14 10:28N 46°08' W 001°11'0 1.1
2017-Nov-14 10:00N 46°09' W 001°11'1 2.2
2017-Nov-14 09:30N 46°09' W 001°09'1 1.7
2017-Nov-14 09:00N 46°09' W 001°10'0 0.1
2017-Nov-14 08:28N 46°09' W 001°10'  

Dump ship's entire track history